sensor_id;sensor_type;location;lat;lon;timestamp;pressure;altitude;pressure_sealevel;temperature;humidity
69622;BME280;56841;55.964;37.674;2023-04-02T00:01:19;98884.69;;;7.46;90.73
69622;BME280;56841;55.964;37.674;2023-04-02T00:11:42;98897.81;;;7.05;98.90
69622;BME280;56841;55.964;37.674;2023-04-02T00:14:28;98907.00;;;7.01;99.63
69622;BME280;56841;55.964;37.674;2023-04-02T00:16:57;98907.63;;;7.03;100.00
69622;BME280;56841;55.964;37.674;2023-04-02T00:19:58;98909.13;;;7.14;100.00
69622;BME280;56841;55.964;37.674;2023-04-02T00:22:30;98914.22;;;7.16;100.00
69622;BME280;56841;55.964;37.674;2023-04-02T00:25:01;98911.75;;;7.14;100.00
69622;BME280;56841;55.964;37.674;2023-04-02T00:27:29;98918.16;;;7.20;100.00
69622;BME280;56841;55.964;37.674;2023-04-02T00:29:57;98920.28;;;7.16;100.00
69622;BME280;56841;55.964;37.674;2023-04-02T00:32:29;98917.03;;;7.22;100.00
69622;BME280;56841;55.964;37.674;2023-04-02T00:34:56;98906.31;;;7.07;100.00
69622;BME280;56841;55.964;37.674;2023-04-02T00:37:27;98908.31;;;7.13;100.00
69622;BME280;56841;55.964;37.674;2023-04-02T00:40:01;98909.78;;;7.24;100.00
69622;BME280;56841;55.964;37.674;2023-04-02T00:42:33;98909.13;;;7.30;100.00
69622;BME280;56841;55.964;37.674;2023-04-02T00:45:00;98913.56;;;7.30;100.00
69622;BME280;56841;55.964;37.674;2023-04-02T00:47:32;98913.41;;;7.31;100.00
69622;BME280;56841;55.964;37.674;2023-04-02T00:50:05;98921.28;;;7.31;100.00
69622;BME280;56841;55.964;37.674;2023-04-02T00:52:33;98920.00;;;7.35;99.21
69622;BME280;56841;55.964;37.674;2023-04-02T00:57:48;98927.03;;;7.43;98.82
69622;BME280;56841;55.964;37.674;2023-04-02T01:00:20;98925.41;;;7.42;98.69
69622;BME280;56841;55.964;37.674;2023-04-02T01:05:47;98934.09;;;7.43;98.09
69622;BME280;56841;55.964;37.674;2023-04-02T01:08:23;98931.47;;;7.34;98.30
69622;BME280;56841;55.964;37.674;2023-04-02T01:13:41;98924.91;;;7.30;99.32
69622;BME280;56841;55.964;37.674;2023-04-02T01:19:00;98920.28;;;7.24;100.00
69622;BME280;56841;55.964;37.674;2023-04-02T01:24:17;98924.09;;;7.30;99.73
69622;BME280;56841;55.964;37.674;2023-04-02T01:26:57;98931.78;;;7.31;100.00
69622;BME280;56841;55.964;37.674;2023-04-02T01:31:56;98934.94;;;7.35;99.62
69622;BME280;56841;55.964;37.674;2023-04-02T01:34:24;98939.00;;;7.38;99.87
69622;BME280;56841;55.964;37.674;2023-04-02T01:40:35;98938.03;;;7.30;99.88
69622;BME280;56841;55.964;37.674;2023-04-02T01:43:19;98933.94;;;7.36;100.00
69622;BME280;56841;55.964;37.674;2023-04-02T01:45:48;98933.63;;;7.39;99.83
69622;BME280;56841;55.964;37.674;2023-04-02T01:48:17;98925.56;;;7.41;99.61
69622;BME280;56841;55.964;37.674;2023-04-02T01:50:47;98923.28;;;7.46;99.85
69622;BME280;56841;55.964;37.674;2023-04-02T01:53:15;98924.25;;;7.36;99.74
69622;BME280;56841;55.964;37.674;2023-04-02T01:55:44;98917.84;;;7.39;99.92
69622;BME280;56841;55.964;37.674;2023-04-02T01:58:13;98929.66;;;7.43;99.85
69622;BME280;56841;55.964;37.674;2023-04-02T02:00:48;98918.50;;;7.41;99.70
69622;BME280;56841;55.964;37.674;2023-04-02T02:03:16;98927.53;;;7.39;100.00
69622;BME280;56841;55.964;37.674;2023-04-02T02:05:43;98929.66;;;7.27;100.00
69622;BME280;56841;55.964;37.674;2023-04-02T02:11:13;98926.38;;;7.17;100.00
69622;BME280;56841;55.964;37.674;2023-04-02T02:13:49;98926.03;;;7.20;100.00
69622;BME280;56841;55.964;37.674;2023-04-02T02:16:16;98928.00;;;7.18;100.00
69622;BME280;56841;55.964;37.674;2023-04-02T02:18:45;98926.38;;;7.17;100.00
69622;BME280;56841;55.964;37.674;2023-04-02T02:21:27;98924.59;;;7.25;100.00
69622;BME280;56841;55.964;37.674;2023-04-02T02:23:55;98927.38;;;7.32;100.00
69622;BME280;56841;55.964;37.674;2023-04-02T02:26:23;98926.69;;;7.38;100.00
69622;BME280;56841;55.964;37.674;2023-04-02T02:28:54;98928.22;;;7.49;100.00
69622;BME280;56841;55.964;37.674;2023-04-02T02:31:26;98924.72;;;7.48;99.16
69622;BME280;56841;55.964;37.674;2023-04-02T02:34:08;98922.13;;;7.56;98.66
69622;BME280;56841;55.964;37.674;2023-04-02T02:36:42;98920.97;;;7.51;98.63
69622;BME280;56841;55.964;37.674;2023-04-02T02:39:28;98932.59;;;7.48;98.70
69622;BME280;56841;55.964;37.674;2023-04-02T02:42:16;98935.59;;;7.53;98.48
69622;BME280;56841;55.964;37.674;2023-04-02T02:44:46;98934.75;;;7.53;98.47
69622;BME280;56841;55.964;37.674;2023-04-02T02:47:17;98937.06;;;7.56;97.88
69622;BME280;56841;55.964;37.674;2023-04-02T02:49:53;98933.94;;;7.52;97.88
69622;BME280;56841;55.964;37.674;2023-04-02T02:52:25;98938.22;;;7.53;98.21
69622;BME280;56841;55.964;37.674;2023-04-02T02:55:17;98938.84;;;7.55;98.08
69622;BME280;56841;55.964;37.674;2023-04-02T02:57:57;98931.81;;;7.56;97.88
69622;BME280;56841;55.964;37.674;2023-04-02T03:00:26;98931.31;;;7.60;97.26
69622;BME280;56841;55.964;37.674;2023-04-02T03:02:55;98929.16;;;7.48;97.92
69622;BME280;56841;55.964;37.674;2023-04-02T03:05:26;98932.78;;;7.39;98.64
69622;BME280;56841;55.964;37.674;2023-04-02T03:07:57;98940.00;;;7.36;99.66
69622;BME280;56841;55.964;37.674;2023-04-02T03:10:45;98941.47;;;7.31;99.60
69622;BME280;56841;55.964;37.674;2023-04-02T03:13:31;98936.56;;;7.36;99.44
69622;BME280;56841;55.964;37.674;2023-04-02T03:16:25;98940.50;;;7.32;99.69
69622;BME280;56841;55.964;37.674;2023-04-02T03:24:05;98953.28;;;7.27;100.00
69622;BME280;56841;55.964;37.674;2023-04-02T03:26:41;98950.97;;;7.24;100.00
69622;BME280;56841;55.964;37.674;2023-04-02T03:29:18;98947.72;;;7.22;100.00
69622;BME280;56841;55.964;37.674;2023-04-02T03:31:53;98951.16;;;7.30;100.00
69622;BME280;56841;55.964;37.674;2023-04-02T03:34:29;98958.41;;;7.28;99.71
69622;BME280;56841;55.964;37.674;2023-04-02T03:42:24;98964.13;;;7.24;99.99
69622;BME280;56841;55.964;37.674;2023-04-02T03:45:02;98963.28;;;7.23;99.81
69622;BME280;56841;55.964;37.674;2023-04-02T03:52:56;98959.88;;;7.39;98.06
69622;BME280;56841;55.964;37.674;2023-04-02T03:55:26;98963.47;;;7.38;97.92
69622;BME280;56841;55.964;37.674;2023-04-02T03:58:54;98973.97;;;7.38;97.83
69622;BME280;56841;55.964;37.674;2023-04-02T04:03:40;98975.50;;;7.49;96.63
69622;BME280;56841;55.964;37.674;2023-04-02T04:08:42;98967.75;;;7.55;96.03
69622;BME280;56841;55.964;37.674;2023-04-02T04:11:14;98959.53;;;7.58;95.61
69622;BME280;56841;55.964;37.674;2023-04-02T04:13:46;98973.66;;;7.66;95.09
69622;BME280;56841;55.964;37.674;2023-04-02T04:16:19;98976.63;;;7.63;95.16
69622;BME280;56841;55.964;37.674;2023-04-02T04:19:37;98981.22;;;7.60;95.44
69622;BME280;56841;55.964;37.674;2023-04-02T04:21:39;98975.66;;;7.64;94.29
69622;BME280;56841;55.964;37.674;2023-04-02T04:24:22;98974.50;;;7.66;93.78
69622;BME280;56841;55.964;37.674;2023-04-02T04:27:07;98966.78;;;7.81;93.09
69622;BME280;56841;55.964;37.674;2023-04-02T04:30:12;98963.97;;;7.91;91.51
69622;BME280;56841;55.964;37.674;2023-04-02T04:32:47;98965.44;;;8.01;90.58
69622;BME280;56841;55.964;37.674;2023-04-02T04:35:32;98960.28;;;8.16;89.50
69622;BME280;56841;55.964;37.674;2023-04-02T04:38:12;98959.97;;;8.19;88.34
69622;BME280;56841;55.964;37.674;2023-04-02T04:41:15;98966.66;;;8.30;88.31
69622;BME280;56841;55.964;37.674;2023-04-02T04:46:18;98987.03;;;8.44;86.75
69622;BME280;56841;55.964;37.674;2023-04-02T04:51:45;98986.41;;;8.42;86.73
69622;BME280;56841;55.964;37.674;2023-04-02T04:54:14;98989.19;;;8.41;86.58
69622;BME280;56841;55.964;37.674;2023-04-02T04:56:52;98997.44;;;8.38;86.88
69622;BME280;56841;55.964;37.674;2023-04-02T04:59:29;98991.03;;;8.24;87.23
69622;BME280;56841;55.964;37.674;2023-04-02T05:02:05;98986.28;;;8.11;87.85
69622;BME280;56841;55.964;37.674;2023-04-02T05:04:37;98994.03;;;8.04;87.90
69622;BME280;56841;55.964;37.674;2023-04-02T05:07:11;98994.66;;;8.06;88.50
69622;BME280;56841;55.964;37.674;2023-04-02T05:09:50;98989.22;;;8.16;87.66
69622;BME280;56841;55.964;37.674;2023-04-02T05:12:32;98995.44;;;8.23;87.27
69622;BME280;56841;55.964;37.674;2023-04-02T05:17:44;98994.63;;;8.23;86.41
69622;BME280;56841;55.964;37.674;2023-04-02T05:20:22;98993.31;;;8.27;86.19
69622;BME280;56841;55.964;37.674;2023-04-02T05:23:07;98998.75;;;8.42;85.52
69622;BME280;56841;55.964;37.674;2023-04-02T05:25:53;98996.25;;;8.48;84.98
69622;BME280;56841;55.964;37.674;2023-04-02T05:28:33;99003.97;;;8.50;84.35
69622;BME280;56841;55.964;37.674;2023-04-02T05:31:14;98993.94;;;8.53;83.57
69622;BME280;56841;55.964;37.674;2023-04-02T05:33:46;98991.97;;;8.47;83.73
69622;BME280;56841;55.964;37.674;2023-04-02T05:36:21;98998.19;;;8.54;83.63
69622;BME280;56841;55.964;37.674;2023-04-02T05:38:51;98998.34;;;8.61;82.99
69622;BME280;56841;55.964;37.674;2023-04-02T05:41:27;99002.28;;;8.65;82.50
69622;BME280;56841;55.964;37.674;2023-04-02T05:44:10;99005.56;;;8.67;82.10
69622;BME280;56841;55.964;37.674;2023-04-02T05:46:48;99013.31;;;8.69;81.96
69622;BME280;56841;55.964;37.674;2023-04-02T05:49:27;99009.47;;;8.80;81.11
69622;BME280;56841;55.964;37.674;2023-04-02T05:51:59;99018.47;;;8.93;80.21
69622;BME280;56841;55.964;37.674;2023-04-02T05:54:46;99016.91;;;9.07;79.63
69622;BME280;56841;55.964;37.674;2023-04-02T05:57:22;99018.19;;;9.11;79.04
69622;BME280;56841;55.964;37.674;2023-04-02T05:59:55;99025.28;;;9.11;78.41
69622;BME280;56841;55.964;37.674;2023-04-02T06:07:57;99015.66;;;8.95;78.57
69622;BME280;56841;55.964;37.674;2023-04-02T06:10:25;99018.13;;;8.96;78.53
69622;BME280;56841;55.964;37.674;2023-04-02T06:13:05;99017.72;;;9.08;77.96
69622;BME280;56841;55.964;37.674;2023-04-02T06:15:36;99022.69;;;8.63;77.95
69622;BME280;56841;55.964;37.674;2023-04-02T06:20:41;99021.88;;;8.54;79.30
69622;BME280;56841;55.964;37.674;2023-04-02T06:28:40;99028.06;;;8.78;78.10
69622;BME280;56841;55.964;37.674;2023-04-02T06:31:30;99032.69;;;8.76;78.48
69622;BME280;56841;55.964;37.674;2023-04-02T06:34:02;99032.03;;;8.74;78.14
69622;BME280;56841;55.964;37.674;2023-04-02T06:36:32;99026.31;;;8.54;78.32
69622;BME280;56841;55.964;37.674;2023-04-02T06:39:06;99025.03;;;8.34;79.12
69622;BME280;56841;55.964;37.674;2023-04-02T06:41:34;99026.19;;;8.23;79.75
69622;BME280;56841;55.964;37.674;2023-04-02T06:44:23;99022.75;;;8.22;79.65
69622;BME280;56841;55.964;37.674;2023-04-02T06:47:03;99017.78;;;8.52;79.32
69622;BME280;56841;55.964;37.674;2023-04-02T06:49:41;99017.22;;;8.73;78.48
69622;BME280;56841;55.964;37.674;2023-04-02T06:52:17;99020.09;;;8.94;76.97
69622;BME280;56841;55.964;37.674;2023-04-02T06:54:46;99026.91;;;9.12;76.48
69622;BME280;56841;55.964;37.674;2023-04-02T06:57:14;99031.84;;;9.15;75.94
69622;BME280;56841;55.964;37.674;2023-04-02T06:59:41;99040.19;;;9.27;75.99
69622;BME280;56841;55.964;37.674;2023-04-02T07:02:37;99037.63;;;9.41;75.08
69622;BME280;56841;55.964;37.674;2023-04-02T07:05:08;99041.91;;;9.42;75.19
69622;BME280;56841;55.964;37.674;2023-04-02T07:07:36;99035.81;;;9.42;74.53
69622;BME280;56841;55.964;37.674;2023-04-02T07:10:06;99039.59;;;9.39;74.06
69622;BME280;56841;55.964;37.674;2023-04-02T07:12:33;99041.34;;;8.93;75.19
69622;BME280;56841;55.964;37.674;2023-04-02T07:14:59;99047.25;;;8.95;76.49
69622;BME280;56841;55.964;37.674;2023-04-02T07:17:25;99042.59;;;9.05;75.50
69622;BME280;56841;55.964;37.674;2023-04-02T07:19:51;99046.50;;;9.09;75.43
69622;BME280;56841;55.964;37.674;2023-04-02T07:22:19;99045.22;;;9.36;75.16
69622;BME280;56841;55.964;37.674;2023-04-02T07:24:49;99040.41;;;9.48;73.97
69622;BME280;56841;55.964;37.674;2023-04-02T07:27:15;99048.31;;;9.48;73.80
69622;BME280;56841;55.964;37.674;2023-04-02T07:29:40;99046.34;;;9.42;73.47
69622;BME280;56841;55.964;37.674;2023-04-02T07:32:10;99048.19;;;9.33;73.03
69622;BME280;56841;55.964;37.674;2023-04-02T07:34:38;99052.63;;;9.41;72.99
69622;BME280;56841;55.964;37.674;2023-04-02T07:37:04;99051.41;;;9.20;73.31
69622;BME280;56841;55.964;37.674;2023-04-02T07:39:30;99053.13;;;9.05;73.55
69622;BME280;56841;55.964;37.674;2023-04-02T07:41:58;99059.66;;;9.17;73.22
69622;BME280;56841;55.964;37.674;2023-04-02T07:44:24;99051.16;;;9.07;72.96
69622;BME280;56841;55.964;37.674;2023-04-02T07:46:50;99065.22;;;8.83;73.70
69622;BME280;56841;55.964;37.674;2023-04-02T07:49:16;99051.13;;;8.68;73.92
69622;BME280;56841;55.964;37.674;2023-04-02T07:51:42;99059.56;;;8.47;74.45
69622;BME280;56841;55.964;37.674;2023-04-02T07:54:08;99059.72;;;8.62;74.11
69622;BME280;56841;55.964;37.674;2023-04-02T07:56:35;99061.38;;;8.46;74.78
69622;BME280;56841;55.964;37.674;2023-04-02T07:59:02;99066.34;;;8.41;75.28
69622;BME280;56841;55.964;37.674;2023-04-02T08:01:29;99064.66;;;8.32;75.00
69622;BME280;56841;55.964;37.674;2023-04-02T08:04:01;99072.56;;;8.32;75.16
69622;BME280;56841;55.964;37.674;2023-04-02T08:06:28;99071.09;;;8.46;74.76
69622;BME280;56841;55.964;37.674;2023-04-02T08:08:56;99070.41;;;8.44;74.74
69622;BME280;56841;55.964;37.674;2023-04-02T08:11:22;99061.34;;;8.54;74.31
69622;BME280;56841;55.964;37.674;2023-04-02T08:13:48;99067.78;;;8.44;74.03
69622;BME280;56841;55.964;37.674;2023-04-02T08:16:15;99075.19;;;8.40;74.66
69622;BME280;56841;55.964;37.674;2023-04-02T08:18:41;99074.19;;;8.33;74.54
69622;BME280;56841;55.964;37.674;2023-04-02T08:21:09;99078.13;;;8.29;74.88
69622;BME280;56841;55.964;37.674;2023-04-02T08:23:35;99079.44;;;8.33;75.49
69622;BME280;56841;55.964;37.674;2023-04-02T08:26:02;99080.78;;;8.29;75.13
69622;BME280;56841;55.964;37.674;2023-04-02T08:28:28;99078.13;;;8.29;75.09
69622;BME280;56841;55.964;37.674;2023-04-02T08:30:54;99078.44;;;8.34;74.61
69622;BME280;56841;55.964;37.674;2023-04-02T08:33:20;99072.06;;;8.45;75.06
69622;BME280;56841;55.964;37.674;2023-04-02T08:35:47;99074.56;;;8.38;74.60
69622;BME280;56841;55.964;37.674;2023-04-02T08:38:15;99072.56;;;8.48;74.70
69622;BME280;56841;55.964;37.674;2023-04-02T08:40:44;99076.47;;;8.61;74.08
69622;BME280;56841;55.964;37.674;2023-04-02T08:45:46;99078.75;;;8.64;73.83
69622;BME280;56841;55.964;37.674;2023-04-02T08:48:15;99080.56;;;8.71;73.79
69622;BME280;56841;55.964;37.674;2023-04-02T08:50:43;99083.31;;;8.78;74.49
69622;BME280;56841;55.964;37.674;2023-04-02T08:53:14;99083.50;;;8.76;73.58
69622;BME280;56841;55.964;37.674;2023-04-02T08:55:51;99082.31;;;8.87;73.55
69622;BME280;56841;55.964;37.674;2023-04-02T09:00:55;99073.56;;;9.34;72.37
69622;BME280;56841;55.964;37.674;2023-04-02T09:03:40;99072.69;;;9.42;72.51
69622;BME280;56841;55.964;37.674;2023-04-02T09:06:12;99074.09;;;9.61;71.58
69622;BME280;56841;55.964;37.674;2023-04-02T09:08:42;99079.44;;;9.67;71.56
69622;BME280;56841;55.964;37.674;2023-04-02T09:11:55;99071.81;;;9.49;71.28
69622;BME280;56841;55.964;37.674;2023-04-02T09:14:25;99079.72;;;9.18;71.97
69622;BME280;56841;55.964;37.674;2023-04-02T09:17:01;99074.13;;;9.21;72.15
69622;BME280;56841;55.964;37.674;2023-04-02T09:19:37;99076.41;;;9.24;72.59
69622;BME280;56841;55.964;37.674;2023-04-02T09:22:10;99080.47;;;9.04;72.88
69622;BME280;56841;55.964;37.674;2023-04-02T09:24:43;99080.03;;;8.84;73.70
69622;BME280;56841;55.964;37.674;2023-04-02T09:27:17;99079.78;;;9.02;73.47
69622;BME280;56841;55.964;37.674;2023-04-02T09:29:46;99082.22;;;9.12;73.41
69622;BME280;56841;55.964;37.674;2023-04-02T09:34:42;99086.59;;;8.88;74.30
69622;BME280;56841;55.964;37.674;2023-04-02T09:37:17;99080.94;;;9.08;74.03
69622;BME280;56841;55.964;37.674;2023-04-02T09:39:44;99088.16;;;9.14;73.61
69622;BME280;56841;55.964;37.674;2023-04-02T09:42:32;99089.72;;;9.31;72.77
69622;BME280;56841;55.964;37.674;2023-04-02T09:47:38;99094.44;;;9.67;71.93
69622;BME280;56841;55.964;37.674;2023-04-02T09:52:47;99094.63;;;9.65;71.14
69622;BME280;56841;55.964;37.674;2023-04-02T09:55:24;99092.94;;;9.72;71.18
69622;BME280;56841;55.964;37.674;2023-04-02T09:58:14;99092.91;;;9.49;71.67
69622;BME280;56841;55.964;37.674;2023-04-02T10:00:49;99105.81;;;9.36;72.47
69622;BME280;56841;55.964;37.674;2023-04-02T10:03:33;99103.38;;;9.35;72.92
69622;BME280;56841;55.964;37.674;2023-04-02T10:06:12;99097.38;;;9.49;72.33
69622;BME280;56841;55.964;37.674;2023-04-02T10:08:43;99095.53;;;9.58;71.78
69622;BME280;56841;55.964;37.674;2023-04-02T10:11:17;99093.34;;;9.30;73.00
69622;BME280;56841;55.964;37.674;2023-04-02T10:16:26;99091.31;;;9.01;74.11
69622;BME280;56841;55.964;37.674;2023-04-02T10:18:58;99101.34;;;9.06;74.82
69622;BME280;56841;55.964;37.674;2023-04-02T10:21:28;99103.09;;;9.21;73.97
69622;BME280;56841;55.964;37.674;2023-04-02T10:23:57;99097.41;;;9.41;73.32
69622;BME280;56841;55.964;37.674;2023-04-02T10:37:50;99111.47;;;9.64;72.47
69622;BME280;56841;55.964;37.674;2023-04-02T10:43:47;99117.16;;;9.76;72.04
69622;BME280;56841;55.964;37.674;2023-04-02T10:51:59;99099.38;;;9.70;72.30
69622;BME280;56841;55.964;37.674;2023-04-02T10:54:47;99101.91;;;9.86;71.92
69622;BME280;56841;55.964;37.674;2023-04-02T10:57:39;99094.94;;;9.93;71.66
69622;BME280;56841;55.964;37.674;2023-04-02T11:02:47;99091.19;;;10.34;70.46
69622;BME280;56841;55.964;37.674;2023-04-02T11:05:48;99094.41;;;10.59;69.73
69622;BME280;56841;55.964;37.674;2023-04-02T11:09:00;99086.69;;;10.87;68.34
69622;BME280;56841;55.964;37.674;2023-04-02T11:11:13;99082.22;;;10.73;68.23
69622;BME280;56841;55.964;37.674;2023-04-02T11:16:06;99084.75;;;11.25;67.31
69622;BME280;56841;55.964;37.674;2023-04-02T11:18:33;99085.44;;;11.49;66.32
69622;BME280;56841;55.964;37.674;2023-04-02T11:21:51;99085.03;;;11.67;65.35
69622;BME280;56841;55.964;37.674;2023-04-02T11:24:01;99074.78;;;12.00;64.35
69622;BME280;56841;55.964;37.674;2023-04-02T11:26:39;99072.19;;;12.28;63.58
69622;BME280;56841;55.964;37.674;2023-04-02T11:32:12;99071.53;;;12.26;64.20
69622;BME280;56841;55.964;37.674;2023-04-02T11:37:39;99061.59;;;12.06;63.71
69622;BME280;56841;55.964;37.674;2023-04-02T11:42:41;99064.44;;;12.05;63.85
69622;BME280;56841;55.964;37.674;2023-04-02T11:50:36;99069.53;;;12.06;64.19
69622;BME280;56841;55.964;37.674;2023-04-02T11:55:40;99076.38;;;11.79;64.22
69622;BME280;56841;55.964;37.674;2023-04-02T12:11:50;99084.75;;;11.25;65.86
69622;BME280;56841;55.964;37.674;2023-04-02T12:14:41;99082.31;;;11.09;66.63
69622;BME280;56841;55.964;37.674;2023-04-02T12:17:30;99087.78;;;10.93;66.97
69622;BME280;56841;55.964;37.674;2023-04-02T12:22:47;99092.06;;;10.94;67.15
69622;BME280;56841;55.964;37.674;2023-04-02T12:25:35;99086.22;;;10.68;67.74
69622;BME280;56841;55.964;37.674;2023-04-02T12:30:41;99086.06;;;10.70;67.71
69622;BME280;56841;55.964;37.674;2023-04-02T12:33:37;99096.16;;;10.81;67.52
69622;BME280;56841;55.964;37.674;2023-04-02T12:38:45;99092.84;;;11.38;66.52
69622;BME280;56841;55.964;37.674;2023-04-02T12:41:32;99096.47;;;11.52;65.56
69622;BME280;56841;55.964;37.674;2023-04-02T12:44:03;99094.34;;;11.48;65.44
69622;BME280;56841;55.964;37.674;2023-04-02T12:46:30;99093.84;;;11.74;65.06
69622;BME280;56841;55.964;37.674;2023-04-02T12:49:24;99097.16;;;11.97;64.42
69622;BME280;56841;55.964;37.674;2023-04-02T12:51:51;99093.47;;;11.77;64.69
69622;BME280;56841;55.964;37.674;2023-04-02T12:54:18;99093.41;;;11.70;64.92
69622;BME280;56841;55.964;37.674;2023-04-02T12:56:47;99085.47;;;11.34;65.93
69622;BME280;56841;55.964;37.674;2023-04-02T12:59:35;99101.16;;;11.21;66.70
69622;BME280;56841;55.964;37.674;2023-04-02T13:02:15;99099.81;;;11.25;66.55
69622;BME280;56841;55.964;37.674;2023-04-02T13:04:51;99099.59;;;11.26;66.91
69622;BME280;56841;55.964;37.674;2023-04-02T13:07:20;99107.78;;;11.31;66.82
69622;BME280;56841;55.964;37.674;2023-04-02T13:09:52;99101.59;;;11.24;66.98
69622;BME280;56841;55.964;37.674;2023-04-02T13:14:54;99103.59;;;11.37;66.78
69622;BME280;56841;55.964;37.674;2023-04-02T13:17:43;99105.91;;;11.25;66.76
69622;BME280;56841;55.964;37.674;2023-04-02T13:20:36;99097.31;;;11.23;67.01
69622;BME280;56841;55.964;37.674;2023-04-02T13:26:17;99102.25;;;10.97;68.33
69622;BME280;56841;55.964;37.674;2023-04-02T13:28:57;99103.91;;;11.12;67.72
69622;BME280;56841;55.964;37.674;2023-04-02T13:31:24;99103.44;;;11.09;67.85
69622;BME280;56841;55.964;37.674;2023-04-02T13:33:50;99110.81;;;11.13;67.59
69622;BME280;56841;55.964;37.674;2023-04-02T13:36:16;99112.66;;;11.13;67.62
69622;BME280;56841;55.964;37.674;2023-04-02T13:38:44;99111.47;;;11.15;67.70
69622;BME280;56841;55.964;37.674;2023-04-02T13:41:21;99110.44;;;11.17;67.64
69622;BME280;56841;55.964;37.674;2023-04-02T13:43:52;99109.16;;;11.27;67.40
69622;BME280;56841;55.964;37.674;2023-04-02T13:46:23;99111.44;;;11.30;67.16
69622;BME280;56841;55.964;37.674;2023-04-02T13:48:52;99106.81;;;11.32;67.26
69622;BME280;56841;55.964;37.674;2023-04-02T13:51:20;99110.81;;;11.28;67.38
69622;BME280;56841;55.964;37.674;2023-04-02T13:53:53;99110.38;;;11.25;67.54
69622;BME280;56841;55.964;37.674;2023-04-02T13:56:20;99116.72;;;11.30;67.43
69622;BME280;56841;55.964;37.674;2023-04-02T13:58:50;99114.34;;;11.21;67.74
69622;BME280;56841;55.964;37.674;2023-04-02T14:01:21;99120.94;;;11.10;68.27
69622;BME280;56841;55.964;37.674;2023-04-02T14:03:48;99117.19;;;11.19;68.05
69622;BME280;56841;55.964;37.674;2023-04-02T14:06:42;99113.19;;;11.23;67.71
69622;BME280;56841;55.964;37.674;2023-04-02T14:38:59;99099.41;;;11.28;67.28
69622;BME280;56841;55.964;37.674;2023-04-02T14:44:03;99094.97;;;11.28;67.02
69622;BME280;56841;55.964;37.674;2023-04-02T14:46:32;99093.66;;;11.24;67.43
69622;BME280;56841;55.964;37.674;2023-04-02T14:51:44;99089.28;;;11.31;67.23
69622;BME280;56841;55.964;37.674;2023-04-02T14:54:16;99090.94;;;11.32;66.97
69622;BME280;56841;55.964;37.674;2023-04-02T14:56:53;99094.56;;;11.31;66.78
69622;BME280;56841;55.964;37.674;2023-04-02T15:02:08;99095.78;;;11.29;66.97
69622;BME280;56841;55.964;37.674;2023-04-02T15:04:41;99101.88;;;11.29;66.99
69622;BME280;56841;55.964;37.674;2023-04-02T15:07:18;99101.78;;;11.23;67.01
69622;BME280;56841;55.964;37.674;2023-04-02T15:09:53;99105.91;;;11.25;66.91
69622;BME280;56841;55.964;37.674;2023-04-02T15:12:26;99103.63;;;11.22;66.58
69622;BME280;56841;55.964;37.674;2023-04-02T15:15:19;99098.13;;;11.24;66.61
69622;BME280;56841;55.964;37.674;2023-04-02T15:17:47;99098.06;;;11.17;66.52
69622;BME280;56841;55.964;37.674;2023-04-02T15:20:16;99097.59;;;11.13;66.80
69622;BME280;56841;55.964;37.674;2023-04-02T15:25:46;99101.25;;;11.12;67.13
69622;BME280;56841;55.964;37.674;2023-04-02T15:28:30;99098.78;;;11.11;66.93
69622;BME280;56841;55.964;37.674;2023-04-02T15:31:02;99105.63;;;11.05;67.26
69622;BME280;56841;55.964;37.674;2023-04-02T15:45:17;99105.00;;;10.88;67.57
69622;BME280;56841;55.964;37.674;2023-04-02T15:53:35;99116.75;;;10.71;68.24
69622;BME280;56841;55.964;37.674;2023-04-02T15:56:29;99112.94;;;10.74;67.97
69622;BME280;56841;55.964;37.674;2023-04-02T16:07:57;99118.47;;;10.64;68.50
69622;BME280;56841;55.964;37.674;2023-04-02T16:10:40;99118.47;;;10.64;68.49
69622;BME280;56841;55.964;37.674;2023-04-02T16:16:18;99131.25;;;10.52;68.70
69622;BME280;56841;55.964;37.674;2023-04-02T16:21:22;99128.97;;;10.49;68.62
69622;BME280;56841;55.964;37.674;2023-04-02T16:23:48;99129.97;;;10.48;68.48
69622;BME280;56841;55.964;37.674;2023-04-02T16:29:06;99132.00;;;10.46;68.76
69622;BME280;56841;55.964;37.674;2023-04-02T16:34:45;99141.09;;;10.43;68.63
69622;BME280;56841;55.964;37.674;2023-04-02T16:37:56;99141.09;;;10.43;68.68
69622;BME280;56841;55.964;37.674;2023-04-02T16:40:24;99147.53;;;10.41;68.75
69622;BME280;56841;55.964;37.674;2023-04-02T16:54:17;99153.19;;;10.53;68.44
69622;BME280;56841;55.964;37.674;2023-04-02T16:57:14;99158.00;;;10.49;68.39
69622;BME280;56841;55.964;37.674;2023-04-02T17:08:24;99165.00;;;10.42;69.14
69622;BME280;56841;55.964;37.674;2023-04-02T17:11:00;99170.13;;;10.43;69.17
69622;BME280;56841;55.964;37.674;2023-04-02T17:13:38;99166.47;;;10.44;69.62
69622;BME280;56841;55.964;37.674;2023-04-02T17:16:40;99171.75;;;10.44;69.52
69622;BME280;56841;55.964;37.674;2023-04-02T17:18:58;99173.56;;;10.44;69.53
69622;BME280;56841;55.964;37.674;2023-04-02T17:21:28;99173.56;;;10.44;69.51
69622;BME280;56841;55.964;37.674;2023-04-02T17:23:59;99174.59;;;10.43;69.49
69622;BME280;56841;55.964;37.674;2023-04-02T17:26:29;99170.13;;;10.43;69.58
69622;BME280;56841;55.964;37.674;2023-04-02T17:29:00;99172.19;;;10.33;69.93
69622;BME280;56841;55.964;37.674;2023-04-02T17:31:31;99177.94;;;10.37;70.16
69622;BME280;56841;55.964;37.674;2023-04-02T17:34:08;99180.38;;;10.38;70.01
69622;BME280;56841;55.964;37.674;2023-04-02T17:37:01;99172.00;;;10.35;70.01
69622;BME280;56841;55.964;37.674;2023-04-02T17:39:44;99187.00;;;10.34;70.16
69622;BME280;56841;55.964;37.674;2023-04-02T17:42:21;99180.09;;;10.25;70.89
69622;BME280;56841;55.964;37.674;2023-04-02T17:45:18;99187.41;;;10.23;70.84
69622;BME280;56841;55.964;37.674;2023-04-02T17:48:43;99181.44;;;10.29;71.03
69622;BME280;56841;55.964;37.674;2023-04-02T18:01:24;99195.94;;;10.33;70.32